Time;durP1;ratioP1;P1;durP2;ratioP2;P2;SDS_P1;SDS_P2;PMS_P1;PMS_P2;Temp;Humidity;BMP_temperature;BMP_pressure;BME280_temperature;BME280_humidity;BME280_pressure;Samples;Min_cycle;Max_cycle;Signal;HPM_P1;HPM_P2
2023/07/06 00:00:59;;;;;;;7.25;2.60;;;14.80;99.90;;;;;;5034320;28;20180;-59
2023/07/06 00:03:26;;;;;;;5.40;2.35;;;14.70;99.90;;;;;;5034287;28;20180;-59
2023/07/06 00:05:51;;;;;;;6.57;2.75;;;14.60;99.90;;;;;;5034193;28;20172;-59
2023/07/06 00:08:17;;;;;;;6.22;2.70;;;14.60;99.90;;;;;;5034170;28;20629;-59
2023/07/06 00:10:44;;;;;;;6.72;3.13;;;14.50;99.90;;;;;;5033954;28;20169;-59
2023/07/06 00:13:11;;;;;;;5.38;2.60;;;14.50;99.90;;;;;;5034094;28;20231;-60
2023/07/06 00:15:37;;;;;;;7.97;2.70;;;14.50;99.90;;;;;;5034134;28;20183;-59
2023/07/06 00:18:04;;;;;;;4.70;2.70;;;14.50;99.90;;;;;;5034019;28;20231;-59
2023/07/06 00:20:35;;;;;;;7.93;3.10;;;14.50;99.90;;;;;;5033786;28;20257;-59
2023/07/06 00:23:01;;;;;;;7.55;3.10;;;14.50;99.90;;;;;;5033747;28;20584;-59
2023/07/06 00:25:27;;;;;;;8.10;2.90;;;14.40;99.90;;;;;;5033754;28;20180;-59
2023/07/06 00:27:58;;;;;;;9.05;2.95;;;14.50;99.90;;;;;;5033933;28;20210;-59
2023/07/06 00:30:53;;;;;;;9.25;3.00;;;14.40;99.90;;;;;;5033833;28;20230;-59
2023/07/06 00:33:17;;;;;;;6.55;3.10;;;14.40;99.90;;;;;;5033448;28;20219;-59
2023/07/06 00:35:44;;;;;;;7.90;3.05;;;14.40;99.90;;;;;;5033555;28;20179;-59
2023/07/06 00:38:14;;;;;;;7.22;3.40;;;14.40;99.90;;;;;;5033663;28;20267;-60
2023/07/06 00:40:46;;;;;;;5.05;2.72;;;14.40;99.90;;;;;;5033632;28;20168;-59
2023/07/06 00:43:20;;;;;;;8.20;2.58;;;14.40;99.90;;;;;;5033505;28;20245;-59
2023/07/06 00:45:50;;;;;;;8.10;3.13;;;14.40;99.90;;;;;;5033531;28;20538;-59
2023/07/06 00:48:27;;;;;;;8.07;2.92;;;14.20;99.90;;;;;;5033356;28;20202;-59
2023/07/06 00:50:56;;;;;;;8.05;3.13;;;14.20;99.90;;;;;;5033430;28;20176;-59
2023/07/06 00:53:27;;;;;;;6.38;3.10;;;14.30;99.90;;;;;;5033329;28;20210;-59
2023/07/06 00:55:58;;;;;;;5.40;2.80;;;14.20;99.90;;;;;;5033390;28;20179;-59
2023/07/06 00:58:35;;;;;;;7.75;3.13;;;14.20;99.90;;;;;;5033296;28;20541;-59
2023/07/06 01:01:05;;;;;;;9.45;3.17;;;14.10;99.90;;;;;;5033472;28;20180;-59
2023/07/06 01:03:34;;;;;;;6.90;2.83;;;14.20;99.90;;;;;;5033342;28;20179;-59
2023/07/06 01:06:04;;;;;;;7.82;3.15;;;14.20;99.90;;;;;;5033370;28;20235;-59
2023/07/06 01:08:35;;;;;;;5.35;2.85;;;14.20;99.90;;;;;;5033717;28;20218;-59
2023/07/06 01:11:01;;;;;;;8.98;2.88;;;14.10;99.90;;;;;;5033163;28;20590;-59
2023/07/06 01:13:28;;;;;;;6.63;3.20;;;14.10;99.90;;;;;;5032981;28;20208;-59
2023/07/06 01:16:32;;;;;;;6.55;3.22;;;14.00;99.90;;;;;;5033244;28;20572;-59
2023/07/06 01:19:35;;;;;;;5.78;2.80;;;14.20;99.90;;;;;;5032955;28;20267;-59
2023/07/06 01:22:22;;;;;;;10.95;3.20;;;14.10;99.90;;;;;;5033092;28;20172;-59
2023/07/06 01:25:16;;;;;;;5.70;2.90;;;14.00;99.90;;;;;;5033162;28;20529;-63
2023/07/06 01:28:16;;;;;;;8.70;3.13;;;13.90;99.90;;;;;;5032986;28;20176;-59
2023/07/06 01:31:13;;;;;;;5.80;2.70;;;13.90;99.90;;;;;;4992979;28;20192;-59
2023/07/06 01:34:04;;;;;;;6.40;3.17;;;13.80;99.90;;;;;;5032897;28;20208;-59
2023/07/06 01:36:53;;;;;;;4.70;2.60;;;13.80;99.90;;;;;;5033126;28;20206;-59
2023/07/06 01:39:22;;;;;;;7.60;2.97;;;13.70;99.90;;;;;;5033146;28;20226;-59
2023/07/06 01:42:07;;;;;;;7.68;3.00;;;13.70;99.90;;;;;;5032905;28;20180;-59
2023/07/06 01:44:33;;;;;;;6.60;3.03;;;13.70;99.90;;;;;;5031930;28;20202;-59
2023/07/06 01:46:59;;;;;;;7.50;3.13;;;13.70;99.90;;;;;;5032773;28;20172;-59
2023/07/06 01:49:25;;;;;;;8.55;3.03;;;13.70;99.90;;;;;;5032923;28;20234;-59
2023/07/06 01:52:08;;;;;;;8.07;3.35;;;13.60;99.90;;;;;;5032844;28;20172;-59
2023/07/06 01:54:44;;;;;;;8.10;3.20;;;13.50;99.90;;;;;;5032810;28;20172;-59
2023/07/06 01:57:20;;;;;;;6.10;2.90;;;13.50;99.90;;;;;;5032690;28;20167;-59
2023/07/06 01:59:49;;;;;;;5.90;2.97;;;13.50;99.90;;;;;;5032836;28;20221;-59
2023/07/06 02:02:16;;;;;;;6.70;2.80;;;13.50;99.90;;;;;;5033949;28;20195;-59
2023/07/06 02:04:43;;;;;;;7.32;3.33;;;13.50;99.90;;;;;;5036487;28;20179;-59
2023/07/06 02:07:11;;;;;;;7.70;3.58;;;13.50;99.90;;;;;;5036355;28;20188;-59
2023/07/06 02:09:44;;;;;;;9.07;3.42;;;13.40;99.90;;;;;;5036240;28;20255;-59
2023/07/06 02:12:14;;;;;;;8.90;3.42;;;13.30;99.90;;;;;;5036259;28;20195;-59
2023/07/06 02:14:41;;;;;;;9.00;3.67;;;13.30;99.90;;;;;;5036386;28;20172;-59
2023/07/06 02:17:07;;;;;;;5.35;3.00;;;13.30;99.90;;;;;;5035922;28;20229;-59
2023/07/06 02:19:35;;;;;;;8.43;3.40;;;13.40;99.90;;;;;;5036125;28;20181;-58
2023/07/06 02:22:03;;;;;;;5.95;3.15;;;13.30;99.90;;;;;;5036021;28;20518;-59
2023/07/06 02:24:29;;;;;;;5.80;2.70;;;13.30;99.90;;;;;;5036192;28;20184;-59
2023/07/06 02:26:55;;;;;;;10.23;3.75;;;13.20;99.90;;;;;;5035975;28;20213;-59
2023/07/06 02:29:22;;;;;;;6.38;2.90;;;13.20;99.90;;;;;;5036354;28;20536;-59
2023/07/06 02:31:48;;;;;;;8.70;3.78;;;13.20;99.90;;;;;;5035832;28;20192;-59
2023/07/06 02:34:14;;;;;;;7.82;3.10;;;13.20;99.90;;;;;;5035824;28;20645;-59
2023/07/06 02:36:40;;;;;;;6.32;3.20;;;13.20;99.90;;;;;;5035735;28;20183;-59
2023/07/06 02:39:06;;;;;;;8.18;3.17;;;13.20;99.90;;;;;;5035915;28;20164;-59
2023/07/06 02:41:32;;;;;;;8.02;3.42;;;13.20;99.90;;;;;;5035872;28;20502;-59
2023/07/06 02:43:58;;;;;;;6.70;3.22;;;13.20;99.90;;;;;;5035778;28;20699;-59
2023/07/06 02:46:23;;;;;;;5.50;3.15;;;13.20;99.90;;;;;;5035756;28;20210;-59
2023/07/06 02:48:50;;;;;;;6.13;3.13;;;13.20;99.90;;;;;;5035530;28;20713;-59
2023/07/06 02:51:16;;;;;;;8.15;3.15;;;13.20;99.90;;;;;;5035465;28;20180;-59
2023/07/06 02:53:42;;;;;;;8.00;3.60;;;13.20;99.90;;;;;;5035341;28;20219;-59
2023/07/06 02:56:08;;;;;;;5.72;3.20;;;13.20;99.90;;;;;;5035612;28;20720;-59
2023/07/06 02:58:34;;;;;;;8.18;3.70;;;13.20;99.90;;;;;;5035465;28;20183;-59
2023/07/06 03:01:01;;;;;;;7.63;3.28;;;13.20;99.90;;;;;;5035384;28;20172;-59
2023/07/06 03:03:26;;;;;;;11.27;3.90;;;13.20;99.90;;;;;;5035316;28;20187;-59
2023/07/06 03:05:53;;;;;;;7.82;3.40;;;13.10;99.90;;;;;;5035248;28;20180;-59
2023/07/06 03:08:19;;;;;;;8.80;3.83;;;13.10;99.90;;;;;;5035414;28;20179;-59
2023/07/06 03:10:48;;;;;;;7.97;3.90;;;13.10;99.90;;;;;;5035399;28;20184;-59
2023/07/06 03:13:15;;;;;;;10.32;3.90;;;13.10;99.90;;;;;;5017405;28;20231;-59
2023/07/06 03:15:41;;;;;;;9.63;3.78;;;13.10;99.90;;;;;;5035463;28;20647;-59
2023/07/06 03:18:08;;;;;;;7.35;3.60;;;13.10;99.90;;;;;;5034835;28;20224;-59
2023/07/06 03:20:37;;;;;;;8.07;3.88;;;13.10;99.90;;;;;;5034937;28;20176;-60
2023/07/06 03:23:03;;;;;;;7.53;3.60;;;13.00;99.90;;;;;;5035065;28;20176;-59
2023/07/06 03:25:30;;;;;;;6.82;3.63;;;13.10;99.90;;;;;;5035068;28;20474;-58
2023/07/06 03:27:56;;;;;;;10.63;4.15;;;13.00;99.90;;;;;;5034892;28;20611;-59
2023/07/06 03:30:24;;;;;;;8.02;4.10;;;13.10;99.90;;;;;;5034724;28;20588;-59
2023/07/06 03:32:51;;;;;;;8.70;3.72;;;13.00;99.90;;;;;;5034600;28;20194;-59
2023/07/06 03:35:18;;;;;;;7.60;3.90;;;13.00;99.90;;;;;;5034869;28;20550;-59
2023/07/06 03:37:45;;;;;;;9.25;3.90;;;13.00;99.90;;;;;;5034765;28;20242;-59
2023/07/06 03:40:11;;;;;;;9.23;4.07;;;13.00;99.90;;;;;;5034682;28;20180;-59
2023/07/06 03:42:42;;;;;;;9.10;3.75;;;13.00;99.90;;;;;;5034874;28;20230;-59
2023/07/06 03:45:10;;;;;;;6.68;3.67;;;12.90;99.90;;;;;;5034623;28;20172;-59
2023/07/06 03:47:37;;;;;;;11.80;4.03;;;12.90;99.90;;;;;;5034413;28;20638;-59
2023/07/06 03:50:04;;;;;;;8.77;3.65;;;13.00;99.90;;;;;;5034552;28;20585;-59
2023/07/06 03:52:30;;;;;;;10.05;4.10;;;13.00;99.90;;;;;;5034424;28;20246;-59
2023/07/06 03:54:59;;;;;;;9.95;3.95;;;12.90;99.90;;;;;;5034389;28;20637;-59
2023/07/06 03:57:27;;;;;;;9.88;3.80;;;13.00;99.90;;;;;;5034300;28;20259;-59
2023/07/06 03:59:53;;;;;;;8.82;3.70;;;13.00;99.90;;;;;;5034198;28;20180;-59
2023/07/06 04:02:20;;;;;;;9.30;4.10;;;12.90;99.90;;;;;;5034059;28;20187;-59
2023/07/06 04:04:46;;;;;;;8.23;4.18;;;12.90;99.90;;;;;;5034306;28;20188;-59
2023/07/06 04:07:12;;;;;;;7.28;3.83;;;12.90;99.90;;;;;;5034248;28;20283;-59
2023/07/06 04:09:39;;;;;;;5.50;3.25;;;12.90;99.90;;;;;;5034056;28;20645;-59
2023/07/06 04:12:07;;;;;;;9.00;3.88;;;13.00;99.90;;;;;;5033973;28;20708;-59
2023/07/06 04:14:34;;;;;;;6.93;3.20;;;12.90;99.90;;;;;;5033848;28;20649;-58
2023/07/06 04:16:59;;;;;;;11.85;3.90;;;13.00;99.90;;;;;;5033729;28;20695;-59
2023/07/06 04:19:25;;;;;;;7.85;3.58;;;13.00;99.90;;;;;;5034046;28;20180;-59
2023/07/06 04:21:52;;;;;;;5.65;3.35;;;13.10;99.90;;;;;;5033956;28;20176;-59
2023/07/06 04:24:18;;;;;;;6.68;3.75;;;13.00;99.90;;;;;;5033098;28;20176;-59
2023/07/06 04:26:47;;;;;;;9.75;3.95;;;13.00;99.90;;;;;;5031791;28;20187;-59
2023/07/06 04:29:14;;;;;;;9.10;3.97;;;13.10;99.90;;;;;;5031725;28;20254;-59
2023/07/06 04:31:40;;;;;;;9.13;4.10;;;13.20;99.90;;;;;;5033280;28;20290;-58
2023/07/06 04:34:07;;;;;;;7.40;3.95;;;13.10;99.90;;;;;;5033386;28;20231;-58
2023/07/06 04:36:32;;;;;;;7.88;3.65;;;13.20;99.90;;;;;;5033358;28;20333;-58
2023/07/06 04:38:59;;;;;;;9.35;3.95;;;13.20;99.90;;;;;;5033166;28;20700;-59
2023/07/06 04:41:28;;;;;;;7.78;3.90;;;13.20;99.90;;;;;;5033247;28;20668;-59
2023/07/06 04:43:55;;;;;;;9.43;4.18;;;13.20;99.90;;;;;;5033949;28;20183;-59
2023/07/06 04:46:21;;;;;;;8.10;3.97;;;13.30;99.90;;;;;;5033672;28;20175;-59
2023/07/06 04:48:50;;;;;;;7.43;4.13;;;13.30;99.90;;;;;;5033554;28;20172;-59
2023/07/06 04:51:17;;;;;;;8.50;3.95;;;13.40;99.90;;;;;;5033572;28;20167;-62
2023/07/06 04:53:43;;;;;;;8.63;3.83;;;13.40;99.90;;;;;;5033126;28;20573;-62
2023/07/06 04:56:08;;;;;;;10.75;4.40;;;13.40;99.90;;;;;;5033495;28;20180;-59
2023/07/06 04:58:34;;;;;;;7.82;3.90;;;13.60;99.90;;;;;;5033539;28;20180;-59
2023/07/06 05:01:05;;;;;;;7.53;3.97;;;13.60;99.90;;;;;;5033437;28;20172;-59
2023/07/06 05:03:31;;;;;;;8.48;4.30;;;13.60;99.90;;;;;;5033454;28;20282;-59
2023/07/06 05:06:02;;;;;;;9.02;3.90;;;13.70;99.90;;;;;;5033344;28;20680;-59
2023/07/06 05:08:27;;;;;;;9.63;4.13;;;13.80;99.90;;;;;;5033338;28;20695;-59
2023/07/06 05:10:53;;;;;;;10.30;3.70;;;13.80;99.90;;;;;;5033150;28;20172;-59
2023/07/06 05:13:22;;;;;;;7.55;3.97;;;13.90;99.90;;;;;;5033203;28;20254;-59
2023/07/06 05:15:49;;;;;;;10.02;4.25;;;14.00;99.90;;;;;;5032666;28;20184;-59
2023/07/06 05:18:18;;;;;;;9.35;3.80;;;14.00;99.90;;;;;;5032781;28;20232;-60
2023/07/06 05:20:44;;;;;;;11.57;4.40;;;14.20;99.90;;;;;;5033087;28;20214;-59
2023/07/06 05:23:11;;;;;;;7.22;3.58;;;14.20;99.90;;;;;;5032088;28;20541;-59
2023/07/06 05:25:36;;;;;;;11.20;4.15;;;14.10;99.90;;;;;;5032371;28;20648;-59
2023/07/06 05:28:02;;;;;;;12.63;4.22;;;14.20;99.90;;;;;;5033323;28;20176;-59
2023/07/06 05:30:29;;;;;;;11.15;4.07;;;14.40;99.90;;;;;;5033039;28;20191;-59
2023/07/06 05:32:55;;;;;;;11.50;4.43;;;14.40;99.90;;;;;;5032989;28;20231;-59
2023/07/06 05:35:22;;;;;;;9.38;4.03;;;14.50;99.90;;;;;;5033039;28;20233;-58
2023/07/06 05:37:48;;;;;;;12.20;4.07;;;14.60;99.90;;;;;;5035172;28;20241;-59
2023/07/06 05:40:14;;;;;;;12.75;3.95;;;14.60;99.90;;;;;;5036731;28;20188;-58
2023/07/06 05:42:40;;;;;;;10.80;4.22;;;14.70;99.90;;;;;;5037172;28;20172;-58
2023/07/06 05:45:08;;;;;;;9.32;3.72;;;14.70;99.90;;;;;;5036919;28;20258;-58
2023/07/06 05:47:33;;;;;;;9.60;4.05;;;14.80;99.90;;;;;;5036821;28;20183;-59
2023/07/06 05:49:59;;;;;;;13.15;4.00;;;15.00;99.90;;;;;;5036680;28;20539;-58
2023/07/06 05:52:26;;;;;;;7.28;3.65;;;15.00;99.90;;;;;;5036653;28;20249;-59
2023/07/06 05:54:52;;;;;;;13.48;4.20;;;15.00;99.90;;;;;;5036527;28;20188;-59
2023/07/06 05:57:19;;;;;;;10.15;4.13;;;15.10;99.90;;;;;;5036839;28;20297;-59
2023/07/06 05:59:45;;;;;;;8.60;3.65;;;15.20;99.90;;;;;;5036619;28;20180;-58
2023/07/06 06:02:15;;;;;;;11.18;3.80;;;15.40;99.90;;;;;;5036833;28;20176;-59
2023/07/06 06:04:40;;;;;;;9.88;3.80;;;15.50;99.90;;;;;;5036440;28;20171;-58
2023/07/06 06:07:06;;;;;;;12.13;3.70;;;15.50;99.90;;;;;;5036310;28;20176;-59
2023/07/06 06:09:33;;;;;;;11.68;3.72;;;15.70;99.90;;;;;;5036276;28;20645;-59
2023/07/06 06:11:59;;;;;;;9.55;4.00;;;15.80;99.90;;;;;;5036299;28;20211;-59
2023/07/06 06:14:25;;;;;;;11.00;4.22;;;15.90;99.90;;;;;;5036336;28;20183;-58
2023/07/06 06:16:50;;;;;;;7.55;3.63;;;15.90;99.90;;;;;;5036268;28;20176;-59
2023/07/06 06:19:16;;;;;;;9.18;3.67;;;15.90;99.90;;;;;;5036161;28;20285;-58
2023/07/06 06:21:45;;;;;;;10.48;3.63;;;15.90;99.90;;;;;;5036047;28;20203;-58
2023/07/06 06:24:11;;;;;;;6.78;3.70;;;16.00;99.90;;;;;;5036212;28;20199;-59
2023/07/06 06:26:37;;;;;;;12.68;4.30;;;16.00;99.90;;;;;;5035981;28;20679;-58
2023/07/06 06:29:03;;;;;;;9.95;4.20;;;16.20;99.90;;;;;;5036141;28;20585;-58
2023/07/06 06:31:30;;;;;;;10.25;4.30;;;16.10;99.90;;;;;;5035999;28;20172;-59
2023/07/06 06:33:55;;;;;;;10.95;4.00;;;16.20;99.90;;;;;;5035897;28;20215;-59
2023/07/06 06:36:22;;;;;;;10.57;4.15;;;16.40;99.90;;;;;;5035828;28;20176;-58
2023/07/06 06:38:48;;;;;;;8.60;3.83;;;16.40;99.90;;;;;;5035998;28;20172;-59
2023/07/06 06:41:15;;;;;;;12.63;4.40;;;16.40;99.90;;;;;;5035829;28;20226;-59
2023/07/06 06:43:44;;;;;;;9.50;4.15;;;16.60;99.90;;;;;;5035800;28;20210;-58
2023/07/06 06:46:11;;;;;;;12.82;4.40;;;16.70;99.90;;;;;;5035696;28;20176;-59
2023/07/06 06:48:39;;;;;;;11.63;4.75;;;16.80;99.90;;;;;;5035256;28;20198;-58
2023/07/06 06:51:08;;;;;;;12.25;4.28;;;17.00;99.90;;;;;;5035434;28;20183;-59
2023/07/06 06:53:34;;;;;;;11.07;4.05;;;17.00;99.90;;;;;;5035584;28;20199;-58
2023/07/06 06:56:00;;;;;;;11.73;3.92;;;17.20;99.90;;;;;;5035635;28;20177;-59
2023/07/06 06:58:26;;;;;;;12.93;5.03;;;17.40;99.90;;;;;;5035624;28;20222;-59
2023/07/06 07:00:57;;;;;;;12.75;4.10;;;17.50;99.90;;;;;;5035433;28;20219;-59
2023/07/06 07:03:23;;;;;;;13.38;4.00;;;17.40;99.90;;;;;;5035468;28;20175;-59
2023/07/06 07:05:59;;;;;;;9.02;4.35;;;17.60;99.90;;;;;;5035190;28;20172;-59
2023/07/06 07:08:25;;;;;;;11.65;3.88;;;17.70;99.90;;;;;;5035426;28;20693;-59
2023/07/06 07:10:56;;;;;;;10.85;3.75;;;17.60;99.90;;;;;;5035354;28;20260;-59
2023/07/06 07:13:22;;;;;;;10.63;4.57;;;17.60;99.90;;;;;;5035191;28;20195;-59
2023/07/06 07:15:49;;;;;;;10.63;4.07;;;17.50;99.90;;;;;;5035305;28;20176;-59
2023/07/06 07:18:15;;;;;;;9.90;4.05;;;17.70;99.90;;;;;;5036464;28;20618;-59
2023/07/06 07:20:43;;;;;;;10.30;4.18;;;17.60;99.90;;;;;;5055103;28;20188;-59
2023/07/06 07:23:09;;;;;;;9.88;3.63;;;17.70;99.90;;;;;;5054973;28;20190;-59
2023/07/06 07:25:38;;;;;;;9.27;3.58;;;17.70;99.90;;;;;;5055034;28;20175;-59
2023/07/06 07:28:05;;;;;;;9.55;3.83;;;17.90;99.90;;;;;;5054835;28;20175;-59
2023/07/06 07:30:31;;;;;;;10.70;4.28;;;18.00;99.90;;;;;;5054831;28;20167;-58
2023/07/06 07:32:57;;;;;;;9.13;3.72;;;18.20;99.90;;;;;;5054677;28;20741;-59
2023/07/06 07:35:23;;;;;;;10.82;3.80;;;18.50;99.90;;;;;;5055256;28;20183;-59
2023/07/06 07:37:50;;;;;;;11.43;4.07;;;18.70;99.90;;;;;;5054620;28;20514;-59
2023/07/06 07:40:18;;;;;;;10.20;3.80;;;19.00;99.90;;;;;;5054537;28;20613;-58
2023/07/06 07:42:46;;;;;;;12.02;4.00;;;19.00;99.90;;;;;;5054584;28;20228;-59
2023/07/06 07:45:13;;;;;;;9.20;3.30;;;19.20;99.90;;;;;;5054415;28;20194;-59
2023/07/06 07:47:39;;;;;;;10.48;3.80;;;19.30;99.90;;;;;;5054663;28;20183;-58
2023/07/06 07:50:06;;;;;;;13.20;4.10;;;19.50;99.90;;;;;;5054569;28;20576;-58
2023/07/06 07:52:32;;;;;;;9.45;3.25;;;19.50;99.90;;;;;;5054272;28;20203;-58
2023/07/06 07:54:58;;;;;;;11.63;4.18;;;19.50;99.90;;;;;;5054292;28;20172;-58
2023/07/06 07:57:23;;;;;;;10.80;3.20;;;19.30;99.90;;;;;;5054394;28;20208;-58
2023/07/06 07:59:49;;;;;;;7.18;3.35;;;19.40;99.90;;;;;;5053312;28;20502;-58
2023/07/06 08:02:15;;;;;;;9.60;3.60;;;19.40;99.90;;;;;;5054362;28;20190;-58
2023/07/06 08:04:41;;;;;;;7.38;3.30;;;19.40;99.90;;;;;;5054192;28;20286;-58
2023/07/06 08:07:07;;;;;;;8.80;3.58;;;19.50;99.90;;;;;;5054236;28;20684;-58
2023/07/06 08:09:32;;;;;;;5.63;2.70;;;19.60;99.90;;;;;;5054124;28;20254;-58
2023/07/06 08:11:58;;;;;;;6.88;3.30;;;19.80;99.90;;;;;;5053932;28;20176;-59
2023/07/06 08:14:53;;;;;;;7.82;3.03;;;19.90;99.90;;;;;;5053783;28;20195;-58
2023/07/06 08:17:19;;;;;;;7.35;2.85;;;20.00;99.90;;;;;;5032695;28;20255;-58
2023/07/06 08:19:45;;;;;;;9.25;3.33;;;20.00;99.90;;;;;;5034002;28;20211;-59
2023/07/06 08:22:11;;;;;;;9.20;3.03;;;20.20;99.90;;;;;;5033939;28;20187;-59
2023/07/06 08:24:38;;;;;;;6.10;2.67;;;20.20;99.90;;;;;;5033927;28;20183;-58
2023/07/06 08:27:04;;;;;;;7.68;3.35;;;20.40;99.90;;;;;;5033659;28;20187;-59
2023/07/06 08:29:31;;;;;;;7.18;2.95;;;20.40;99.90;;;;;;5034305;28;20179;-59
2023/07/06 08:31:58;;;;;;;8.15;2.75;;;20.30;99.90;;;;;;5033671;28;20671;-59
2023/07/06 08:34:26;;;;;;;7.82;2.67;;;20.20;99.90;;;;;;5033718;28;20187;-59
2023/07/06 08:36:53;;;;;;;10.45;3.05;;;20.20;99.90;;;;;;5033814;28;20179;-59
2023/07/06 08:39:18;;;;;;;4.90;2.00;;;20.30;99.90;;;;;;5033544;28;20183;-59
2023/07/06 08:41:45;;;;;;;10.20;2.92;;;20.40;99.90;;;;;;5033794;28;20172;-59
2023/07/06 08:44:14;;;;;;;6.57;2.38;;;20.70;99.90;;;;;;5033676;28;20179;-59
2023/07/06 08:46:47;;;;;;;6.63;2.33;;;20.80;99.90;;;;;;5033636;28;20226;-59
2023/07/06 08:49:30;;;;;;;3.67;1.77;;;21.00;99.90;;;;;;5033541;28;20625;-59
2023/07/06 08:52:02;;;;;;;7.43;2.45;;;21.20;99.90;;;;;;5033546;28;20598;-59
2023/07/06 08:54:28;;;;;;;6.10;2.22;;;21.40;99.90;;;;;;5033642;28;20326;-59
2023/07/06 08:56:54;;;;;;;6.35;2.13;;;21.70;99.90;;;;;;5033525;28;20267;-59
2023/07/06 08:59:48;;;;;;;6.22;1.98;;;21.50;99.90;;;;;;5033428;28;20176;-59
2023/07/06 09:02:22;;;;;;;5.03;1.83;;;21.20;99.90;;;;;;5033332;28;20168;-59
2023/07/06 09:04:50;;;;;;;5.65;2.13;;;20.60;99.90;;;;;;5034067;28;20187;-59
2023/07/06 09:07:18;;;;;;;4.68;1.83;;;20.50;99.90;;;;;;5033524;28;20175;-59
2023/07/06 09:09:46;;;;;;;5.60;1.83;;;20.20;99.90;;;;;;5033573;28;20226;-60
2023/07/06 09:12:24;;;;;;;5.70;2.00;;;20.10;99.90;;;;;;5032959;28;20199;-59
2023/07/06 09:14:53;;;;;;;6.05;1.80;;;20.20;99.90;;;;;;5032889;28;20246;-59
2023/07/06 09:17:20;;;;;;;6.40;2.13;;;20.10;99.90;;;;;;5033026;28;20231;-58
2023/07/06 09:19:46;;;;;;;7.28;2.00;;;20.50;99.90;;;;;;5033248;28;20176;-59
2023/07/06 09:22:12;;;;;;;4.32;1.80;;;20.60;99.90;;;;;;5015527;28;20184;-58
2023/07/06 09:24:37;;;;;;;8.18;2.42;;;20.90;99.90;;;;;;5033117;28;20253;-59
2023/07/06 09:27:18;;;;;;;6.95;2.20;;;21.20;99.90;;;;;;5032991;28;20180;-59
2023/07/06 09:29:46;;;;;;;4.57;2.17;;;21.30;99.90;;;;;;5033538;28;20195;-59
2023/07/06 09:32:12;;;;;;;5.50;1.45;;;21.70;99.90;;;;;;5033148;28;20168;-59
2023/07/06 09:34:41;;;;;;;4.47;1.50;;;21.90;99.90;;;;;;5033206;28;20187;-59
2023/07/06 09:37:12;;;;;;;4.57;1.70;;;21.50;99.90;;;;;;5033159;28;20172;-59
2023/07/06 09:39:38;;;;;;;3.88;1.55;;;21.00;99.90;;;;;;5033011;28;20583;-59
2023/07/06 09:42:04;;;;;;;5.25;1.90;;;20.80;99.90;;;;;;5032908;28;20226;-60
2023/07/06 09:44:31;;;;;;;4.30;1.88;;;21.10;99.90;;;;;;5033046;28;20172;-59
2023/07/06 09:46:59;;;;;;;4.63;2.10;;;21.50;99.90;;;;;;5015234;28;20191;-59
2023/07/06 09:49:35;;;;;;;2.38;1.42;;;21.80;99.90;;;;;;5032979;28;20204;-59
2023/07/06 09:52:07;;;;;;;3.92;1.65;;;21.20;99.90;;;;;;5032775;28;20175;-59
2023/07/06 09:54:40;;;;;;;4.85;1.70;;;20.80;99.90;;;;;;5032746;28;20256;-59
2023/07/06 09:57:15;;;;;;;4.13;1.83;;;20.90;99.90;;;;;;5033019;28;20172;-59
2023/07/06 09:59:46;;;;;;;3.72;1.63;;;20.80;99.90;;;;;;5032851;28;20738;-59
2023/07/06 10:02:31;;;;;;;2.95;1.30;;;20.60;99.90;;;;;;5032928;28;20191;-59
2023/07/06 10:05:00;;;;;;;5.35;1.65;;;20.50;99.90;;;;;;5032694;28;20172;-59
2023/07/06 10:07:39;;;;;;;2.47;1.45;;;20.90;99.90;;;;;;5032818;28;20176;-59
2023/07/06 10:10:42;;;;;;;3.42;1.90;;;21.20;99.90;;;;;;5032779;28;20179;-59
2023/07/06 10:13:11;;;;;;;4.57;1.65;;;21.60;99.90;;;;;;5028998;28;20249;-60
2023/07/06 10:15:41;;;;;;;3.53;1.60;;;21.60;99.90;;;;;;5032881;28;20175;-59
2023/07/06 10:18:30;;;;;;;3.80;1.60;;;21.80;99.90;;;;;;5031658;28;20593;-59
2023/07/06 10:21:08;;;;;;;2.65;1.23;;;22.20;99.90;;;;;;5052565;28;20172;-59
2023/07/06 10:24:08;;;;;;;3.60;1.55;;;22.60;99.90;;;;;;5054064;28;20171;-59
2023/07/06 10:26:38;;;;;;;2.53;1.35;;;23.00;99.90;;;;;;5056185;28;20520;-59
2023/07/06 10:29:16;;;;;;;2.67;1.60;;;23.30;99.90;;;;;;5055996;28;20171;-59
2023/07/06 10:31:55;;;;;;;3.42;1.50;;;23.40;99.90;;;;;;5055938;28;20532;-59
2023/07/06 10:34:38;;;;;;;3.42;1.45;;;23.40;99.90;;;;;;5054712;28;20563;-59
2023/07/06 10:37:05;;;;;;;2.80;1.40;;;23.60;99.90;;;;;;5056031;28;20176;-59
2023/07/06 10:39:31;;;;;;;3.38;1.55;;;23.70;99.90;;;;;;5055946;28;20182;-59
2023/07/06 10:42:05;;;;;;;4.68;1.50;;;23.30;99.90;;;;;;5055767;28;20175;-59
2023/07/06 10:44:46;;;;;;;5.45;1.45;;;23.10;99.90;;;;;;5055652;28;20202;-59
2023/07/06 10:47:36;;;;;;;4.60;1.45;;;22.80;99.90;;;;;;5055816;28;20536;-59
2023/07/06 10:50:08;;;;;;;3.53;1.40;;;22.50;99.90;;;;;;5055622;28;20176;-59
2023/07/06 10:52:41;;;;;;;3.83;1.50;;;22.20;99.90;;;;;;5055437;28;20202;-59
2023/07/06 10:55:29;;;;;;;3.38;1.48;;;21.70;99.90;;;;;;5055386;28;20538;-60
2023/07/06 10:58:04;;;;;;;4.47;1.35;;;21.60;99.90;;;;;;5055530;28;20631;-59
2023/07/06 11:00:35;;;;;;;4.22;1.65;;;21.60;99.90;;;;;;5055535;28;20249;-59
2023/07/06 11:03:02;;;;;;;5.32;2.17;;;21.50;99.90;;;;;;5055385;28;20586;-59
2023/07/06 11:05:33;;;;;;;3.83;1.48;;;21.40;99.90;;;;;;5055209;28;20164;-60
2023/07/06 11:08:01;;;;;;;6.65;1.80;;;21.40;99.90;;;;;;5055187;28;20226;-59
2023/07/06 11:10:37;;;;;;;4.35;1.85;;;21.40;99.90;;;;;;5055312;28;20175;-59
2023/07/06 11:13:04;;;;;;;4.35;1.40;;;21.40;99.90;;;;;;5055189;28;20222;-59
2023/07/06 11:15:35;;;;;;;5.75;1.77;;;21.50;99.90;;;;;;5055188;28;20171;-59
2023/07/06 11:18:39;;;;;;;3.35;1.75;;;21.30;99.90;;;;;;5045589;28;20215;-59
2023/07/06 11:21:13;;;;;;;3.83;1.73;;;21.60;99.90;;;;;;5035184;28;20502;-60
2023/07/06 11:23:47;;;;;;;3.05;1.70;;;22.30;99.90;;;;;;5034999;28;20645;-59
2023/07/06 11:26:45;;;;;;;4.65;1.88;;;22.30;99.90;;;;;;5034918;28;20275;-60
2023/07/06 11:29:11;;;;;;;2.70;1.55;;;22.10;99.90;;;;;;5035038;28;20176;-60
2023/07/06 11:32:00;;;;;;;6.00;2.28;;;22.00;99.90;;;;;;5034868;28;20176;-59
2023/07/06 11:34:38;;;;;;;5.18;1.70;;;21.90;99.90;;;;;;4985956;28;20626;-60
2023/07/06 11:37:15;;;;;;;5.53;1.73;;;22.30;99.90;;;;;;5034778;28;20171;-59
2023/07/06 11:39:49;;;;;;;3.50;1.60;;;22.60;99.90;;;;;;5034874;28;20172;-60
2023/07/06 11:42:39;;;;;;;2.97;1.40;;;22.80;99.90;;;;;;5034688;28;20176;-59
2023/07/06 11:45:30;;;;;;;3.63;1.70;;;22.60;99.90;;;;;;5034518;28;20172;-60
2023/07/06 11:48:34;;;;;;;3.75;1.75;;;22.70;99.90;;;;;;5034677;28;20172;-59
2023/07/06 11:51:03;;;;;;;4.70;1.88;;;22.50;99.90;;;;;;5030889;28;20545;-60
2023/07/06 11:53:42;;;;;;;4.00;1.50;;;22.40;99.90;;;;;;5034266;28;20542;-59
2023/07/06 11:56:19;;;;;;;6.93;2.03;;;22.20;99.90;;;;;;5034503;28;20252;-59
2023/07/06 11:58:59;;;;;;;4.10;1.95;;;22.10;99.90;;;;;;5034462;28;20175;-59
2023/07/06 12:01:40;;;;;;;4.53;2.17;;;21.90;99.90;;;;;;5034290;28;20660;-59
2023/07/06 12:04:29;;;;;;;3.65;2.03;;;21.90;99.90;;;;;;5034466;28;20179;-60
2023/07/06 12:06:57;;;;;;;5.20;2.28;;;22.00;99.90;;;;;;5034290;28;20172;-60
2023/07/06 12:09:24;;;;;;;4.15;2.00;;;22.00;99.90;;;;;;5034317;28;20176;-60
2023/07/06 12:12:07;;;;;;;4.60;1.98;;;22.10;99.90;;;;;;5034024;28;20186;-60
2023/07/06 12:14:36;;;;;;;5.45;2.13;;;22.10;99.90;;;;;;5033842;28;20191;-60
2023/07/06 12:17:05;;;;;;;3.58;1.60;;;22.30;99.90;;;;;;5033909;28;20175;-59
2023/07/06 12:19:30;;;;;;;4.72;1.75;;;22.50;99.90;;;;;;5034079;28;20172;-60
2023/07/06 12:21:58;;;;;;;5.97;1.98;;;22.90;99.90;;;;;;5033956;28;20538;-60
2023/07/06 12:24:29;;;;;;;3.92;1.60;;;22.90;99.90;;;;;;5033790;28;20183;-60
2023/07/06 12:27:15;;;;;;;3.13;1.80;;;22.60;98.80;;;;;;5033689;28;20206;-60
2023/07/06 12:29:41;;;;;;;2.50;1.63;;;22.70;99.90;;;;;;5033900;28;20274;-59
2023/07/06 12:32:19;;;;;;;2.72;1.50;;;22.50;99.90;;;;;;5033751;28;20532;-60
2023/07/06 12:34:49;;;;;;;3.50;1.63;;;22.60;99.90;;;;;;5033631;28;20232;-60
2023/07/06 12:37:16;;;;;;;3.72;1.75;;;22.60;99.90;;;;;;5033560;28;20214;-59
2023/07/06 12:39:45;;;;;;;3.95;1.90;;;22.50;99.90;;;;;;5033692;28;20173;-60
2023/07/06 12:42:12;;;;;;;6.18;2.10;;;22.70;99.90;;;;;;5033724;28;20214;-60
2023/07/06 12:44:40;;;;;;;6.20;1.90;;;23.10;99.20;;;;;;5033485;28;20218;-60
2023/07/06 12:47:20;;;;;;;4.10;1.70;;;23.00;99.90;;;;;;5033179;28;20254;-60
2023/07/06 12:49:47;;;;;;;4.25;2.30;;;23.00;99.90;;;;;;5033617;28;20167;-60
2023/07/06 12:52:13;;;;;;;6.75;2.05;;;23.10;99.90;;;;;;5033543;28;20172;-60
2023/07/06 12:54:52;;;;;;;5.05;1.63;;;23.10;99.90;;;;;;5033494;28;20183;-60
2023/07/06 12:57:25;;;;;;;2.88;1.65;;;22.80;99.90;;;;;;5033493;28;20175;-60
2023/07/06 13:00:12;;;;;;;3.63;1.58;;;22.60;99.90;;;;;;5033333;28;20172;-60
2023/07/06 13:02:39;;;;;;;4.22;1.50;;;22.80;99.90;;;;;;5017285;28;20187;-60